createdAt,value
2018-11-03T00:02:22.033Z,6.40
2018-11-03T00:04:52.513Z,7.43
2018-11-03T00:07:21.498Z,7.60
2018-11-03T00:09:50.364Z,7.40
2018-11-03T00:12:19.566Z,7.40
2018-11-03T00:14:49.202Z,7.73
2018-11-03T00:17:19.749Z,6.33
2018-11-03T00:19:50.022Z,7.80
2018-11-03T00:22:18.895Z,7.23
2018-11-03T00:24:47.691Z,7.37
2018-11-03T00:27:17.540Z,6.87
2018-11-03T00:29:46.440Z,7.57
2018-11-03T00:32:15.419Z,7.57
2018-11-03T00:34:45.962Z,8.13
2018-11-03T00:37:15.274Z,7.97
2018-11-03T00:39:44.382Z,7.87
2018-11-03T00:42:13.234Z,7.43
2018-11-03T00:44:42.620Z,7.57
2018-11-03T00:47:12.382Z,7.20
2018-11-03T00:49:41.190Z,7.33
2018-11-03T00:52:10.962Z,7.97
2018-11-03T00:54:39.859Z,8.40
2018-11-03T00:57:08.750Z,7.83
2018-11-03T00:59:37.718Z,8.60
2018-11-03T01:02:07.043Z,7.70
2018-11-03T01:04:36.042Z,7.90
2018-11-03T01:07:08.552Z,8.27
2018-11-03T01:09:37.370Z,8.33
2018-11-03T01:12:06.511Z,7.73
2018-11-03T01:14:36.179Z,8.63
2018-11-03T01:17:05.224Z,8.27
2018-11-03T01:19:35.816Z,8.53
2018-11-03T01:22:04.802Z,8.93
2018-11-03T01:24:33.674Z,9.17
2018-11-03T01:27:02.899Z,8.83
2018-11-03T01:29:32.542Z,9.20
2018-11-03T01:32:01.395Z,8.03
2018-11-03T01:34:30.214Z,8.77
2018-11-03T01:36:59.123Z,9.87
2018-11-03T01:39:27.974Z,9.07
2018-11-03T01:41:58.029Z,9.53
2018-11-03T01:44:27.550Z,10.47
2018-11-03T01:46:56.439Z,10.00
2018-11-03T01:49:25.246Z,9.63
2018-11-03T01:51:54.090Z,10.10
2018-11-03T01:54:24.576Z,9.47
2018-11-03T01:56:53.422Z,10.00
2018-11-03T01:59:23.640Z,10.10
2018-11-03T02:01:54.093Z,9.57
2018-11-03T02:04:24.933Z,10.13
2018-11-03T02:06:54.059Z,10.40
2018-11-03T02:09:25.887Z,10.10
2018-11-03T02:11:54.764Z,11.40
2018-11-03T02:14:23.670Z,9.93
2018-11-03T02:16:52.831Z,10.73
2018-11-03T02:19:22.369Z,10.83
2018-11-03T02:21:51.287Z,10.83
2018-11-03T02:24:20.129Z,10.80
2018-11-03T02:26:49.298Z,11.03
2018-11-03T02:29:18.174Z,11.33
2018-11-03T02:31:47.075Z,11.77
2018-11-03T02:34:15.987Z,11.20
2018-11-03T02:36:44.834Z,12.00
2018-11-03T02:39:13.673Z,11.23
2018-11-03T02:41:42.819Z,11.23
2018-11-03T02:44:11.775Z,11.53
2018-11-03T02:46:40.646Z,12.67
2018-11-03T02:49:09.496Z,12.20
2018-11-03T02:51:38.292Z,11.90
2018-11-03T02:54:08.211Z,12.13
2018-11-03T02:56:37.091Z,11.87
2018-11-03T02:59:06.443Z,12.00
2018-11-03T03:01:35.264Z,12.43
2018-11-03T03:04:04.189Z,12.13
2018-11-03T03:06:33.389Z,12.10
2018-11-03T03:09:02.247Z,13.50
2018-11-03T03:11:31.141Z,13.63
2018-11-03T03:14:00.423Z,13.70
2018-11-03T03:16:29.234Z,13.83
2018-11-03T03:18:58.039Z,12.90
2018-11-03T03:21:27.372Z,12.90
2018-11-03T03:23:56.210Z,13.47
2018-11-03T03:26:28.822Z,14.57
2018-11-03T03:28:57.777Z,14.63
2018-11-03T03:31:26.662Z,15.70
2018-11-03T03:33:57.186Z,14.60
2018-11-03T03:36:26.793Z,13.33
2018-11-03T03:38:55.643Z,14.30
2018-11-03T03:41:24.640Z,14.13
2018-11-03T03:43:53.848Z,15.60
2018-11-03T03:46:22.659Z,14.40
2018-11-03T03:48:51.538Z,15.83
2018-11-03T03:51:20.796Z,14.77
2018-11-03T03:53:49.738Z,15.50
2018-11-03T03:56:18.579Z,15.03
2018-11-03T03:58:47.400Z,14.60
2018-11-03T04:01:16.753Z,14.50
2018-11-03T04:03:47.192Z,15.87
2018-11-03T04:06:16.054Z,14.47
2018-11-03T04:08:44.936Z,14.17
2018-11-03T04:11:15.458Z,14.57
2018-11-03T04:13:44.338Z,14.50
2018-11-03T04:16:13.196Z,15.53
2018-11-03T04:18:42.051Z,15.13
2018-11-03T04:21:14.626Z,15.70
2018-11-03T04:23:43.512Z,15.03
2018-11-03T04:26:12.399Z,14.73
2018-11-03T04:28:43.279Z,15.67
2018-11-03T04:31:12.181Z,14.83
2018-11-03T04:33:46.090Z,15.93
2018-11-03T04:36:15.666Z,14.37
2018-11-03T04:38:44.599Z,15.13
2018-11-03T04:41:15.584Z,15.33
2018-11-03T04:43:44.827Z,14.87
2018-11-03T04:46:13.664Z,15.73
2018-11-03T04:48:42.842Z,16.17
2018-11-03T04:51:12.171Z,15.70
2018-11-03T04:53:41.010Z,15.67
2018-11-03T04:56:09.794Z,15.67
2018-11-03T04:58:38.663Z,15.27
2018-11-03T05:01:07.487Z,16.60
2018-11-03T05:03:36.436Z,15.97
2018-11-03T05:06:05.362Z,16.30
2018-11-03T05:08:34.242Z,16.10
2018-11-03T05:11:03.082Z,15.30
2018-11-03T05:13:31.898Z,16.33
2018-11-03T05:16:00.819Z,17.40
2018-11-03T05:18:30.271Z,16.33
2018-11-03T05:20:59.521Z,15.73
2018-11-03T05:23:29.157Z,16.67
2018-11-03T05:26:00.867Z,15.70
2018-11-03T05:28:30.771Z,17.70
2018-11-03T05:31:00.143Z,16.47
2018-11-03T05:33:28.978Z,16.83
2018-11-03T05:35:57.849Z,16.60
2018-11-03T05:38:27.598Z,17.07
2018-11-03T05:40:56.496Z,17.63
2018-11-03T05:43:25.379Z,19.37
2018-11-03T05:45:54.640Z,21.10
2018-11-03T05:48:23.535Z,19.93
2018-11-03T05:50:52.406Z,20.13
2018-11-03T05:53:21.279Z,20.53
2018-11-03T05:55:50.466Z,20.17
2018-11-03T05:58:19.332Z,20.13
2018-11-03T06:00:48.200Z,21.70
2018-11-03T06:03:17.659Z,21.27
2018-11-03T06:05:46.818Z,21.30
2018-11-03T06:08:15.671Z,21.50
2018-11-03T06:10:46.383Z,22.30
2018-11-03T06:13:17.916Z,23.27
2018-11-03T06:15:47.262Z,24.10
2018-11-03T06:18:16.146Z,22.40
2018-11-03T06:20:53.491Z,22.73
2018-11-03T06:23:28.323Z,22.40
2018-11-03T06:25:57.548Z,21.60
2018-11-03T06:28:26.665Z,22.50
2018-11-03T06:30:56.229Z,23.30
2018-11-03T06:33:25.232Z,22.73
2018-11-03T06:35:54.244Z,23.70
2018-11-03T06:38:23.706Z,23.43
2018-11-03T06:40:52.594Z,22.33
2018-11-03T06:43:21.491Z,23.63
2018-11-03T06:45:52.451Z,24.73
2018-11-03T06:48:21.309Z,22.90
2018-11-03T06:50:51.942Z,24.70
2018-11-03T06:53:21.221Z,23.27
2018-11-03T06:55:51.013Z,25.03
2018-11-03T06:58:19.880Z,23.50
2018-11-03T07:00:48.785Z,22.57
2018-11-03T07:03:18.083Z,24.33
2018-11-03T07:05:47.070Z,23.67
2018-11-03T07:08:15.982Z,24.23
2018-11-03T07:10:46.459Z,22.60
2018-11-03T07:13:15.464Z,24.47
2018-11-03T07:15:45.994Z,24.23
2018-11-03T07:18:15.315Z,24.00
2018-11-03T07:20:44.192Z,24.97
2018-11-03T07:23:13.709Z,25.83
2018-11-03T07:25:43.433Z,25.43
2018-11-03T07:28:13.499Z,26.57
2018-11-03T07:30:42.459Z,26.50
2018-11-03T07:33:15.717Z,25.93
2018-11-03T07:35:50.799Z,26.67
2018-11-03T07:38:21.522Z,26.90
2018-11-03T07:40:50.779Z,26.23
2018-11-03T07:43:23.308Z,26.73
2018-11-03T07:46:00.331Z,26.70
2018-11-03T07:48:34.339Z,26.07
2018-11-03T07:51:03.622Z,26.37
2018-11-03T07:53:32.742Z,26.40
2018-11-03T07:56:01.626Z,26.53
2018-11-03T07:58:31.441Z,26.23
2018-11-03T08:01:00.277Z,26.00
2018-11-03T08:03:30.443Z,26.63
2018-11-03T08:06:01.539Z,25.50
2018-11-03T08:08:31.180Z,26.77
2018-11-03T08:11:00.119Z,26.60
2018-11-03T08:13:33.209Z,25.67
2018-11-03T08:16:02.071Z,25.87
2018-11-03T08:18:31.324Z,26.93
2018-11-03T08:21:03.790Z,26.87
2018-11-03T08:23:33.536Z,26.57
2018-11-03T08:26:03.180Z,26.47
2018-11-03T08:28:32.088Z,27.37
2018-11-03T08:31:01.262Z,28.57
2018-11-03T08:33:36.378Z,29.83
2018-11-03T08:36:05.299Z,28.73
2018-11-03T08:38:35.359Z,29.20
2018-11-03T08:41:06.473Z,28.50
2018-11-03T08:43:35.958Z,28.93
2018-11-03T08:46:11.777Z,28.40
2018-11-03T08:48:43.402Z,28.97
2018-11-03T08:51:13.640Z,28.40
2018-11-03T08:53:50.459Z,29.27
2018-11-03T08:56:23.057Z,28.30
2018-11-03T08:58:51.861Z,31.43
2018-11-03T09:01:25.550Z,28.63
2018-11-03T09:03:57.912Z,29.77
2018-11-03T09:06:45.706Z,30.47
2018-11-03T09:09:16.847Z,27.23
2018-11-03T09:11:45.888Z,29.77
2018-11-03T09:14:17.453Z,26.90
2018-11-03T09:16:47.002Z,29.33
2018-11-03T09:19:17.046Z,28.70
2018-11-03T09:21:48.418Z,27.93
2018-11-03T09:24:18.640Z,28.73
2018-11-03T09:26:48.314Z,28.30
2018-11-03T09:29:17.627Z,28.57
2018-11-03T09:31:50.313Z,29.50
2018-11-03T09:34:25.083Z,27.20
2018-11-03T09:36:53.933Z,27.47
2018-11-03T09:39:25.454Z,29.17
2018-11-03T09:41:54.370Z,29.80
2018-11-03T09:44:24.476Z,30.10
2018-11-03T09:46:55.077Z,30.37
2018-11-03T09:49:26.777Z,29.33
2018-11-03T09:51:55.736Z,30.37
2018-11-03T09:54:26.152Z,31.30
2018-11-03T09:56:55.699Z,29.23
2018-11-03T09:59:28.416Z,28.97
2018-11-03T10:01:57.784Z,30.67
2018-11-03T10:04:26.606Z,29.67
2018-11-03T10:06:56.491Z,29.73
2018-11-03T10:09:25.882Z,30.00
2018-11-03T10:11:54.764Z,29.83
2018-11-03T10:14:24.429Z,29.20
2018-11-03T10:16:54.734Z,30.00
2018-11-03T10:19:24.033Z,30.97
2018-11-03T10:21:55.223Z,30.17
2018-11-03T10:24:32.398Z,30.53
2018-11-03T10:27:06.497Z,29.90
2018-11-03T10:29:44.376Z,28.40
2018-11-03T10:32:14.365Z,29.17
2018-11-03T10:34:45.283Z,28.13
2018-11-03T10:37:17.247Z,29.93
2018-11-03T10:39:50.296Z,29.10
2018-11-03T10:42:21.542Z,28.97
2018-11-03T10:44:54.394Z,30.77
2018-11-03T10:47:26.322Z,30.43
2018-11-03T10:49:56.029Z,29.60
2018-11-03T10:52:26.365Z,29.37
2018-11-03T10:54:59.350Z,29.90
2018-11-03T10:57:28.682Z,31.27
2018-11-03T10:59:59.244Z,30.20
2018-11-03T11:02:33.166Z,29.63
2018-11-03T11:05:07.185Z,31.17
2018-11-03T11:07:42.275Z,30.17
2018-11-03T11:10:17.558Z,30.27
2018-11-03T11:12:48.921Z,30.10
2018-11-03T11:15:18.379Z,30.33
2018-11-03T11:17:49.040Z,29.93
2018-11-03T11:20:19.405Z,29.90
2018-11-03T11:22:49.622Z,30.17
2018-11-03T11:25:21.170Z,30.37
2018-11-03T11:27:49.926Z,29.60
2018-11-03T11:30:19.539Z,30.43
2018-11-03T11:32:49.807Z,30.27
2018-11-03T11:35:19.400Z,29.73
2018-11-03T11:37:48.191Z,30.53
2018-11-03T11:40:17.044Z,30.63
2018-11-03T11:42:45.887Z,29.50
2018-11-03T11:45:14.678Z,29.10
2018-11-03T11:47:44.830Z,30.60
2018-11-03T11:50:14.504Z,31.40
2018-11-03T11:52:49.065Z,29.50
2018-11-03T11:55:19.215Z,29.33
2018-11-03T11:57:49.197Z,29.80
2018-11-03T12:00:19.053Z,29.43
2018-11-03T12:02:47.934Z,30.87
2018-11-03T12:05:19.944Z,27.73
2018-11-03T12:07:49.382Z,29.40
2018-11-03T12:10:22.823Z,29.47
2018-11-03T12:12:53.521Z,30.60
2018-11-03T12:15:24.744Z,29.93
2018-11-03T12:17:55.399Z,30.43
2018-11-03T12:20:29.063Z,29.93
2018-11-03T12:22:59.367Z,29.03
2018-11-03T12:25:30.398Z,30.83
2018-11-03T12:28:02.538Z,30.47
2018-11-03T12:30:33.476Z,30.03
2018-11-03T12:33:04.303Z,29.53
2018-11-03T12:35:33.922Z,30.63
2018-11-03T12:38:08.474Z,31.50
2018-11-03T12:40:38.865Z,30.23
2018-11-03T12:43:08.214Z,29.43
2018-11-03T12:49:30.665Z,30.47
2018-11-03T12:52:02.333Z,29.23
2018-11-03T12:54:32.685Z,29.67
2018-11-03T12:57:04.043Z,30.03
2018-11-03T12:59:34.247Z,29.63
2018-11-03T13:02:04.425Z,30.27
2018-11-03T13:08:06.334Z,31.47
2018-11-03T13:10:36.460Z,31.77
2018-11-03T13:13:07.366Z,31.20
2018-11-03T13:15:37.089Z,31.03
2018-11-03T13:18:06.422Z,31.17
2018-11-03T13:20:35.291Z,31.40
2018-11-03T13:23:06.403Z,31.97
2018-11-03T13:25:36.850Z,31.50
2018-11-03T13:28:07.453Z,31.33
2018-11-03T13:30:36.397Z,31.10
2018-11-03T13:33:06.281Z,32.60
2018-11-03T13:35:37.376Z,31.20
2018-11-03T13:38:07.186Z,29.90
2018-11-03T13:40:37.948Z,33.87
2018-11-03T13:43:09.491Z,32.20
2018-11-03T13:45:41.478Z,33.27
2018-11-03T13:48:13.663Z,33.23
2018-11-03T13:50:43.452Z,31.27
2018-11-03T13:53:12.314Z,33.13
2018-11-03T13:55:41.165Z,31.67
2018-11-03T13:58:13.131Z,32.83
2018-11-03T14:00:44.172Z,31.50
2018-11-03T14:03:14.836Z,34.73
2018-11-03T14:05:45.253Z,34.17
2018-11-03T14:08:18.267Z,33.10
2018-11-03T14:11:17.837Z,33.27
2018-11-03T14:13:53.474Z,34.13
2018-11-03T14:16:22.373Z,32.90
2018-11-03T14:18:52.390Z,33.23
2018-11-03T14:21:21.385Z,33.10
2018-11-03T14:23:50.331Z,34.37
2018-11-03T14:26:19.453Z,34.63
2018-11-03T14:28:54.536Z,35.47
2018-11-03T14:31:24.759Z,34.53
2018-11-03T14:33:54.387Z,35.83
2018-11-03T14:36:24.138Z,35.03
2018-11-03T14:38:53.006Z,34.93
2018-11-03T14:41:22.206Z,36.70
2018-11-03T14:43:51.794Z,34.20
2018-11-03T14:46:22.706Z,36.17
2018-11-03T14:48:54.381Z,34.27
2018-11-03T14:51:24.054Z,32.30
2018-11-03T14:53:52.898Z,33.03
2018-11-03T14:56:21.741Z,34.33
2018-11-03T14:58:54.823Z,34.93
2018-11-03T15:01:25.366Z,34.00
2018-11-03T15:03:55.475Z,33.20
2018-11-03T15:06:24.363Z,34.13
2018-11-03T15:08:53.199Z,34.80
2018-11-03T15:11:25.021Z,34.47
2018-11-03T15:13:54.764Z,32.97
2018-11-03T15:16:23.401Z,31.47
2018-11-03T15:18:53.169Z,32.63
2018-11-03T15:21:22.042Z,33.77
2018-11-03T15:23:52.166Z,33.70
2018-11-03T15:26:21.030Z,33.97
2018-11-03T15:28:50.310Z,32.03
2018-11-03T15:31:19.138Z,33.73
2018-11-03T15:33:52.350Z,33.07
2018-11-03T15:36:23.785Z,33.47
2018-11-03T15:38:53.423Z,31.60
2018-11-03T15:41:24.759Z,32.20
2018-11-03T15:43:55.584Z,32.73
2018-11-03T15:46:26.689Z,32.03
2018-11-03T15:48:56.607Z,32.37
2018-11-03T15:51:26.211Z,33.37
2018-11-03T15:59:17.338Z,35.90
2018-11-03T16:01:47.151Z,34.70
2018-11-03T16:04:17.662Z,35.03
2018-11-03T16:06:46.526Z,48.90
2018-11-03T16:09:17.906Z,36.60
2018-11-03T16:11:48.000Z,34.40
2018-11-03T16:14:18.072Z,33.93
2018-11-03T16:16:47.413Z,35.83
2018-11-03T16:19:16.279Z,34.23
2018-11-03T16:21:45.782Z,35.53
2018-11-03T16:24:14.684Z,35.43
2018-11-03T16:26:44.310Z,38.43
2018-11-03T16:29:14.714Z,37.73
2018-11-03T16:31:44.274Z,36.87
2018-11-03T16:34:14.663Z,37.23
2018-11-03T16:36:45.342Z,35.30
2018-11-03T16:39:14.503Z,37.57
2018-11-03T16:41:47.287Z,36.43
2018-11-03T16:44:17.797Z,38.33
2018-11-03T16:46:48.803Z,37.53
2018-11-03T16:49:24.367Z,36.97
2018-11-03T16:51:55.223Z,37.70
2018-11-03T16:54:30.476Z,35.80
2018-11-03T16:56:59.467Z,33.53
2018-11-03T16:59:29.940Z,32.50
2018-11-03T17:01:59.300Z,34.83
2018-11-03T17:04:28.875Z,34.50
2018-11-03T17:06:59.505Z,33.97
2018-11-03T17:09:28.995Z,34.77
2018-11-03T17:11:57.942Z,34.50
2018-11-03T17:14:26.851Z,33.10
2018-11-03T17:16:55.991Z,35.17
2018-11-03T17:19:24.850Z,35.03
2018-11-03T17:21:53.722Z,34.73
2018-11-03T17:24:24.539Z,35.30
2018-11-03T17:26:57.078Z,41.23
2018-11-03T17:29:26.918Z,40.60
2018-11-03T17:31:57.865Z,36.50
2018-11-03T17:34:29.616Z,36.57
2018-11-03T17:36:59.319Z,34.63
2018-11-03T17:39:29.423Z,33.50
2018-11-03T17:41:59.679Z,34.03
2018-11-03T17:44:36.294Z,37.47
2018-11-03T17:47:07.490Z,35.40
2018-11-03T17:49:40.164Z,35.30
2018-11-03T17:52:13.008Z,34.87
2018-11-03T17:54:42.493Z,34.17
2018-11-03T17:57:18.839Z,34.13
2018-11-03T17:59:47.838Z,33.60
2018-11-03T18:02:18.773Z,36.77
2018-11-03T18:04:49.475Z,36.53
2018-11-03T18:07:21.306Z,35.43
2018-11-03T18:09:54.403Z,35.30
2018-11-03T18:12:27.099Z,34.60
2018-11-03T18:14:57.151Z,34.47
2018-11-03T18:17:29.218Z,35.27
2018-11-03T18:20:05.338Z,35.83
2018-11-03T18:22:39.075Z,34.87
2018-11-03T18:25:14.319Z,35.07
2018-11-03T18:27:46.433Z,36.10
2018-11-03T18:30:21.663Z,34.73
2018-11-03T18:32:54.754Z,33.80
2018-11-03T18:35:29.364Z,33.67
2018-11-03T18:38:00.290Z,35.43
2018-11-03T18:40:32.414Z,34.47
2018-11-03T18:45:49.350Z,35.73
2018-11-03T18:48:18.945Z,34.40
2018-11-03T18:50:52.547Z,34.67
2018-11-03T18:53:22.383Z,34.20
2018-11-03T18:55:54.667Z,34.40
2018-11-03T18:58:26.948Z,34.23
2018-11-03T19:00:57.334Z,35.03
2018-11-03T19:03:26.515Z,36.23
2018-11-03T19:05:56.809Z,36.00
2018-11-03T19:08:26.631Z,36.13
2018-11-03T19:10:58.711Z,35.30
2018-11-03T19:13:27.560Z,35.23
2018-11-03T19:15:57.185Z,34.67
2018-11-03T19:18:26.063Z,34.73
2018-11-03T19:20:55.303Z,35.63
2018-11-03T19:30:21.317Z,35.87
2018-11-03T19:32:51.810Z,35.20
2018-11-03T19:35:27.106Z,36.10
2018-11-03T19:37:57.766Z,37.43
2018-11-03T19:40:50.820Z,36.80
2018-11-03T19:43:21.352Z,36.87
2018-11-03T19:45:50.411Z,37.90
2018-11-03T19:48:22.299Z,37.33
2018-11-03T19:50:51.733Z,36.90
2018-11-03T19:53:23.779Z,36.97
2018-11-03T19:56:01.236Z,37.23
2018-11-03T19:58:32.115Z,35.80
2018-11-03T20:01:03.704Z,39.20
2018-11-03T20:03:36.433Z,36.63
2018-11-03T20:06:05.330Z,38.70
2018-11-03T20:08:40.318Z,35.90
2018-11-03T20:11:11.970Z,36.93
2018-11-03T20:13:45.080Z,38.43
2018-11-03T20:16:14.842Z,37.33
2018-11-03T20:18:50.094Z,38.37
2018-11-03T20:21:20.436Z,36.23
2018-11-03T20:23:50.007Z,37.43
2018-11-03T20:26:21.866Z,37.37
2018-11-03T20:28:50.706Z,36.17
2018-11-03T20:31:26.116Z,38.83
2018-11-03T20:33:59.309Z,35.50
2018-11-03T20:36:30.120Z,38.20
2018-11-03T20:39:01.443Z,36.17
2018-11-03T20:41:32.020Z,38.37
2018-11-03T20:44:02.087Z,37.07
2018-11-03T20:46:30.880Z,36.47
2018-11-03T20:49:04.442Z,36.60
2018-11-03T20:51:37.418Z,35.87
2018-11-03T20:54:08.468Z,38.00
2018-11-03T20:56:38.503Z,34.97
2018-11-03T20:59:07.407Z,36.77
2018-11-03T21:01:38.152Z,39.27
2018-11-03T21:04:07.555Z,36.67
2018-11-03T21:06:38.220Z,36.17
2018-11-03T21:09:10.056Z,38.30
2018-11-03T21:11:47.486Z,35.27
2018-11-03T21:14:21.666Z,33.20
2018-11-03T21:16:52.184Z,36.23
2018-11-03T21:19:22.336Z,36.93
2018-11-03T21:21:56.518Z,35.43
2018-11-03T21:24:25.442Z,35.27
2018-11-03T21:26:56.206Z,37.40
2018-11-03T21:29:25.398Z,36.93
2018-11-03T21:31:55.546Z,37.40
2018-11-03T21:34:25.718Z,36.37
2018-11-03T21:37:08.885Z,36.30
2018-11-03T21:39:39.680Z,35.30
2018-11-03T21:42:09.534Z,38.27
2018-11-03T21:44:41.365Z,37.27
2018-11-03T21:47:14.126Z,37.17
2018-11-03T21:49:46.641Z,38.20
2018-11-03T21:52:30.412Z,37.13
2018-11-03T21:55:00.343Z,39.47
2018-11-03T21:57:31.298Z,35.60
2018-11-03T22:00:00.266Z,37.50
2018-11-03T22:02:30.441Z,37.00
2018-11-03T22:05:02.942Z,37.03
2018-11-03T22:07:34.424Z,37.53
2018-11-03T22:10:08.458Z,37.53
2018-11-03T22:12:40.052Z,36.17
2018-11-03T22:15:12.363Z,37.73
2018-11-03T22:17:43.150Z,37.27
2018-11-03T22:20:15.510Z,38.93
2018-11-03T22:22:47.975Z,37.90
2018-11-03T22:25:18.191Z,39.77
2018-11-03T22:27:47.124Z,41.63
2018-11-03T22:30:16.430Z,39.47
2018-11-03T22:32:47.371Z,40.13
2018-11-03T22:35:17.386Z,42.77
2018-11-03T22:37:46.527Z,42.67
2018-11-03T22:40:16.514Z,40.97
2018-11-03T22:42:46.591Z,41.97
2018-11-03T22:45:15.461Z,42.40
2018-11-03T22:47:44.462Z,40.33
2018-11-03T22:50:16.177Z,39.93
2018-11-03T22:52:46.142Z,40.77
2018-11-03T22:55:16.350Z,43.73
2018-11-03T22:57:45.998Z,45.03
2018-11-03T23:00:15.280Z,42.70
2018-11-03T23:02:48.649Z,40.70
2018-11-03T23:05:25.431Z,43.90
2018-11-03T23:07:55.592Z,42.33
2018-11-03T23:10:24.878Z,41.70
2018-11-03T23:12:55.970Z,40.27
2018-11-03T23:15:41.268Z,43.23
2018-11-03T23:18:11.935Z,43.27
2018-11-03T23:20:43.283Z,46.03
2018-11-03T23:23:14.235Z,43.60
2018-11-03T23:25:47.703Z,42.27
2018-11-03T23:28:17.413Z,42.57
2018-11-03T23:33:31.894Z,40.80
2018-11-03T23:36:09.572Z,50.77
2018-11-03T23:38:50.257Z,41.30
2018-11-03T23:41:19.784Z,48.80
2018-11-03T23:43:56.686Z,43.40
2018-11-03T23:46:32.220Z,43.80
2018-11-03T23:49:03.848Z,42.63
2018-11-03T23:51:34.335Z,42.10
2018-11-03T23:54:04.134Z,43.17
2018-11-03T23:56:34.188Z,41.03
2018-11-03T23:59:03.304Z,44.13
